Judi M. — WCX8376 — position and weather

sailwx.info

Track history (hours):
 
Tides and Currents Weather Stations Pressure Air Temp Water Temp Dewpoint Dewpoint Depression Visibility Wind Speed Wind Dir Waves Ship Positions

Judi M.

More information available from US FCC via Universal Licensing System and Coast Guard Vessel Documentation Center.

Last reported at 2014-Jul-31 13:33 UTC. Time now 2014-Jul-31 13:41 UTC.
Position N 49°28' W 123°28'.

Length 29 m; draft 4 m.

Type: Tow > 200 m length. MMSI: 366740920.

Date/timePositionNaut miles runAvg speedWind from/ knotsBaromVisibWave heightAir tempDewpointWater temp
2014-Jul-31 13:33N 49°28' W 123°28'8 8.2
2014-Jul-31 12:33N 49°20' W 123°27'9 8.8
2014-Jul-31 11:33N 49°11' W 123°27'9 8.6
2014-Jul-31 10:33N 49°04' W 123°20'9 9.0
2014-Jul-31 09:33N 48°58' W 123°09'9 9.0
2014-Jul-31 08:33N 48°52' W 122°60'9 8.9
2014-Jul-31 07:33N 48°46' W 122°49'8 8.1
2014-Jul-31 06:33N 48°39' W 122°43'8 7.5
2014-Jul-31 05:33N 48°32' W 122°45'9 9.2
2014-Jul-31 04:32N 48°23' W 122°44'11 7.9
2014-Jul-31 03:06N 48°11' W 122°45'5 7.8
2014-Jul-31 02:27N 48°08' W 122°40'7 7.4
2014-Jul-31 01:33N 48°02' W 122°37'2 6.9
2014-Jul-31 01:16N 47°60' W 122°35'5 6.6
2014-Jul-31 00:33N 47°57' W 122°30'0 6.8
2014-Jul-31 00:31N 47°56' W 122°30'8 8.1
2014-Jul-30 23:33N 47°49' W 122°27'0 7.4
2014-Jul-30 23:31N 47°49' W 122°26'8 8.6
2014-Jul-30 22:33N 47°41' W 122°27'0 7.2
2014-Jul-30 22:31N 47°40' W 122°27'7 7.1
2014-Jul-30 21:33N 47°34' W 122°22'0 0.0
2014-Jul-30 21:31N 47°34' W 122°22'0 0.0
2014-Jul-30 20:33N 47°34' W 122°22'0 0.0
2014-Jul-30 20:31N 47°34' W 122°22'0 0.0
2014-Jul-30 19:33N 47°34' W 122°22'0 0.0
2014-Jul-30 19:31N 47°34' W 122°22'0 0.0
2014-Jul-30 18:33N 47°34' W 122°22'0 0.0
2014-Jul-30 18:31N 47°34' W 122°22'0 0.0
2014-Jul-30 17:33N 47°34' W 122°22'0 0.0
2014-Jul-30 17:30N 47°34' W 122°22'0 0.0
2014-Jul-30 16:33N 47°34' W 122°22'0 0.0
2014-Jul-30 16:30N 47°34' W 122°22'0 0.0
2014-Jul-30 15:33N 47°34' W 122°22'0 0.0
2014-Jul-30 15:30N 47°34' W 122°22'0 0.0
2014-Jul-30 14:33N 47°34' W 122°22'0 0.0
2014-Jul-30 14:30N 47°34' W 122°22'0 0.0
2014-Jul-30 13:33N 47°34' W 122°22'0 0.0
2014-Jul-30 13:29N 47°34' W 122°22'2 2.2
2014-Jul-30 12:33N 47°36' W 122°23'0 5.7
2014-Jul-30 12:29N 47°36' W 122°24'6 6.9
2014-Jul-30 11:33N 47°42' W 122°28'0 7.1
2014-Jul-30 11:29N 47°42' W 122°28'7 7.9
2014-Jul-30 10:33N 47°50' W 122°28'0 6.5
2014-Jul-30 10:29N 47°50' W 122°28'6 6.8
2014-Jul-30 09:33N 47°56' W 122°32'1 6.5
2014-Jul-30 09:28N 47°56' W 122°33'6 6.2
2014-Jul-30 08:33N 48°01' W 122°38'6 5.0
2014-Jul-30 07:21N 48°07' W 122°41'4 4.5
2014-Jul-30 06:33N 48°09' W 122°45'5 4.5
2014-Jul-30 05:32N 48°11' W 122°51'6 6.2
2014-Jul-30 04:33N 48°12' W 122°60'7 7.1
2014-Jul-30 03:32N 48°11' W 123°11'6 6.5
2014-Jul-30 02:33N 48°08' W 123°19'6 5.7
2014-Jul-30 01:33N 48°08' W 123°28'0 0.0
2014-Jul-30 00:33N 48°08' W 123°28'0 0.0
2014-Jul-29 23:33N 48°08' W 123°28'0 0.0
2014-Jul-29 22:33N 48°08' W 123°28'0 0.0
2014-Jul-29 21:33N 48°08' W 123°28'0 0.0
2014-Jul-29 20:33N 48°08' W 123°28'0 0.0
2014-Jul-29 19:31N 48°08' W 123°28'0 0.0
2014-Jul-29 18:24N 48°08' W 123°28'0 0.0
2014-Jul-29 17:33N 48°08' W 123°28'0 0.0
2014-Jul-29 16:33N 48°08' W 123°28'0 0.0
2014-Jul-29 15:33N 48°08' W 123°28'0 0.0
2014-Jul-29 14:33N 48°08' W 123°28'2 1.8
2014-Jul-29 13:33N 48°08' W 123°25'8 7.6
2014-Jul-29 12:33N 48°10' W 123°14'1 7.7
2014-Jul-29 12:23N 48°11' W 123°12'6 7.0
2014-Jul-29 11:33N 48°13' W 123°04'7 7.3
2014-Jul-29 10:33N 48°12' W 122°53'9 6.8
2014-Jul-29 09:10N 48°08' W 122°40'5 8.3
2014-Jul-29 08:33N 48°03' W 122°38'6 9.3
2014-Jul-29 07:55N 47°58' W 122°34'3 9.3
2014-Jul-29 07:33N 47°56' W 122°29'2 9.3
2014-Jul-29 07:21N 47°54' W 122°29'7 8.7
2014-Jul-29 06:33N 47°47' W 122°26'0 7.4
2014-Jul-29 06:31N 47°47' W 122°26'5 8.1
2014-Jul-29 05:56N 47°42' W 122°26'3 8.4
2014-Jul-29 05:33N 47°39' W 122°27'6 6.0
2014-Jul-29 04:33N 47°34' W 122°22'0 0.1
2014-Jul-29 04:30N 47°34' W 122°22'  
2014-Jul-26 06:30N 47°36' W 122°22'1 2.2
2014-Jul-26 06:09N 47°36' W 122°23'2 6.1
2014-Jul-26 05:49N 47°37' W 122°25'2 6.7
2014-Jul-26 05:33N 47°38' W 122°27'6 6.3
2014-Jul-26 04:34N 47°45' W 122°27'0 8.8
2014-Jul-26 04:33N 47°45' W 122°27'7 6.8
2014-Jul-26 03:33N 47°51' W 122°29'0 4.6
2014-Jul-26 03:33N 47°51' W 122°29'6 6.0
2014-Jul-26 02:33N 47°56' W 122°33'12 5.4
2014-Jul-26 00:20N 48°06' W 122°44'3 0.3
2014-Jul-25 11:13N 48°05' W 122°39'5 7.9
2014-Jul-25 10:33N 48°00' W 122°36'7 6.9
2014-Jul-25 09:33N 47°56' W 122°29'010.8
2014-Jul-25 09:33N 47°56' W 122°29'8 7.7
2014-Jul-25 08:33N 47°48' W 122°26'011.6
2014-Jul-25 08:33N 47°48' W 122°26'8 7.6
2014-Jul-25 07:33N 47°41' W 122°27'0 0.0
2014-Jul-25 07:33N 47°41' W 122°27'6 7.2
2014-Jul-25 06:43N 47°36' W 122°22'1 6.7
2014-Jul-25 06:33N 47°35' W 122°22'  
2014-Jul-22 21:50N 47°34' W 122°22'0 0.7
2014-Jul-22 21:33N 47°35' W 122°22'0 3.8
2014-Jul-22 21:30N 47°35' W 122°22'2 1.7
2014-Jul-22 20:33N 47°36' W 122°23'0 3.2
2014-Jul-22 20:30N 47°36' W 122°23'6 6.2
2014-Jul-22 19:33N 47°41' W 122°28'0 7.1
2014-Jul-22 19:30N 47°41' W 122°28'7 7.8
2014-Jul-22 18:34N 47°49' W 122°28'1 8.0
2014-Jul-22 18:30N 47°49' W 122°28'7 7.3
2014-Jul-22 17:34N 47°56' W 122°31'7 7.1
2014-Jul-22 16:34N 48°01' W 122°39'7 6.8
2014-Jul-22 15:33N 48°07' W 122°41'6 5.7
2014-Jul-22 14:33N 48°11' W 122°48'8 5.7
2014-Jul-22 13:12N 48°19' W 122°47'5 8.4
2014-Jul-22 12:33N 48°24' W 122°45'10 9.7
2014-Jul-22 11:33N 48°33' W 122°45'8 8.4
2014-Jul-22 10:34N 48°42' W 122°44'7 7.5
2014-Jul-22 09:34N 48°47' W 122°52'8 7.7
2014-Jul-22 08:34N 48°51' W 123°02'8 7.5
2014-Jul-22 07:34N 48°55' W 123°12'7 7.0
2014-Jul-22 06:33N 49°00' W 123°19'7 7.0
2014-Jul-22 05:34N 49°06' W 123°27'7 6.8
2014-Jul-22 04:33N 49°12' W 123°29'7 6.9
2014-Jul-22 03:34N 49°19' W 123°28'7 6.6
2014-Jul-22 02:33N 49°26' W 123°27'6 5.6
2014-Jul-22 01:33N 49°31' W 123°29'0 0.0
2014-Jul-21 23:33N 49°31' W 123°29'0 0.0
2014-Jul-21 22:32N 49°31' W 123°29'0 0.0
2014-Jul-21 21:34N 49°31' W 123°29'0 0.0
2014-Jul-21 20:33N 49°31' W 123°29'0 0.0
2014-Jul-21 20:18N 49°31' W 123°29'0 0.0
2014-Jul-21 18:29N 49°31' W 123°29'0 0.0
2014-Jul-21 17:13N 49°31' W 123°29'0 0.0
2014-Jul-21 14:33N 49°31' W 123°29'3 3.4
2014-Jul-21 13:34N 49°28' W 123°28'  
Track history (hours):
 
Tides and Currents Weather Stations Pressure Air Temp Water Temp Dewpoint Dewpoint Depression Visibility Wind Speed Wind Dir Waves Ship Positions

Judi M.

More information available from US FCC via Universal Licensing System and Coast Guard Vessel Documentation Center.

Last reported at 2014-Jul-31 13:33 UTC. Time now 2014-Jul-31 13:41 UTC.
Position N 49°28' W 123°28'.

Length 29 m; draft 4 m.

Type: Tow > 200 m length. MMSI: 366740920.

Date/timePositionNaut miles runAvg speedWind from/ knotsBaromVisibWave heightAir tempDewpointWater temp
2014-Jul-31 13:33N 49°28' W 123°28'8 8.2
2014-Jul-31 12:33N 49°20' W 123°27'9 8.8
2014-Jul-31 11:33N 49°11' W 123°27'9 8.6
2014-Jul-31 10:33N 49°04' W 123°20'9 9.0
2014-Jul-31 09:33N 48°58' W 123°09'9 9.0
2014-Jul-31 08:33N 48°52' W 122°60'9 8.9
2014-Jul-31 07:33N 48°46' W 122°49'8 8.1
2014-Jul-31 06:33N 48°39' W 122°43'8 7.5
2014-Jul-31 05:33N 48°32' W 122°45'9 9.2
2014-Jul-31 04:32N 48°23' W 122°44'11 7.9
2014-Jul-31 03:06N 48°11' W 122°45'5 7.8
2014-Jul-31 02:27N 48°08' W 122°40'7 7.4
2014-Jul-31 01:33N 48°02' W 122°37'2 6.9
2014-Jul-31 01:16N 47°60' W 122°35'5 6.6
2014-Jul-31 00:33N 47°57' W 122°30'0 6.8
2014-Jul-31 00:31N 47°56' W 122°30'8 8.1
2014-Jul-30 23:33N 47°49' W 122°27'0 7.4
2014-Jul-30 23:31N 47°49' W 122°26'8 8.6
2014-Jul-30 22:33N 47°41' W 122°27'0 7.2
2014-Jul-30 22:31N 47°40' W 122°27'7 7.1
2014-Jul-30 21:33N 47°34' W 122°22'0 0.0
2014-Jul-30 21:31N 47°34' W 122°22'0 0.0
2014-Jul-30 20:33N 47°34' W 122°22'0 0.0
2014-Jul-30 20:31N 47°34' W 122°22'0 0.0
2014-Jul-30 19:33N 47°34' W 122°22'0 0.0
2014-Jul-30 19:31N 47°34' W 122°22'0 0.0
2014-Jul-30 18:33N 47°34' W 122°22'0 0.0
2014-Jul-30 18:31N 47°34' W 122°22'0 0.0
2014-Jul-30 17:33N 47°34' W 122°22'0 0.0
2014-Jul-30 17:30N 47°34' W 122°22'0 0.0
2014-Jul-30 16:33N 47°34' W 122°22'0 0.0
2014-Jul-30 16:30N 47°34' W 122°22'0 0.0
2014-Jul-30 15:33N 47°34' W 122°22'0 0.0
2014-Jul-30 15:30N 47°34' W 122°22'0 0.0
2014-Jul-30 14:33N 47°34' W 122°22'0 0.0
2014-Jul-30 14:30N 47°34' W 122°22'0 0.0
2014-Jul-30 13:33N 47°34' W 122°22'0 0.0
2014-Jul-30 13:29N 47°34' W 122°22'2 2.2
2014-Jul-30 12:33N 47°36' W 122°23'0 5.7
2014-Jul-30 12:29N 47°36' W 122°24'6 6.9
2014-Jul-30 11:33N 47°42' W 122°28'0 7.1
2014-Jul-30 11:29N 47°42' W 122°28'7 7.9
2014-Jul-30 10:33N 47°50' W 122°28'0 6.5
2014-Jul-30 10:29N 47°50' W 122°28'6 6.8
2014-Jul-30 09:33N 47°56' W 122°32'1 6.5
2014-Jul-30 09:28N 47°56' W 122°33'6 6.2
2014-Jul-30 08:33N 48°01' W 122°38'6 5.0
2014-Jul-30 07:21N 48°07' W 122°41'4 4.5
2014-Jul-30 06:33N 48°09' W 122°45'5 4.5
2014-Jul-30 05:32N 48°11' W 122°51'6 6.2
2014-Jul-30 04:33N 48°12' W 122°60'7 7.1
2014-Jul-30 03:32N 48°11' W 123°11'6 6.5
2014-Jul-30 02:33N 48°08' W 123°19'6 5.7
2014-Jul-30 01:33N 48°08' W 123°28'0 0.0
2014-Jul-30 00:33N 48°08' W 123°28'0 0.0
2014-Jul-29 23:33N 48°08' W 123°28'0 0.0
2014-Jul-29 22:33N 48°08' W 123°28'0 0.0
2014-Jul-29 21:33N 48°08' W 123°28'0 0.0
2014-Jul-29 20:33N 48°08' W 123°28'0 0.0
2014-Jul-29 19:31N 48°08' W 123°28'0 0.0
2014-Jul-29 18:24N 48°08' W 123°28'0 0.0
2014-Jul-29 17:33N 48°08' W 123°28'0 0.0
2014-Jul-29 16:33N 48°08' W 123°28'0 0.0
2014-Jul-29 15:33N 48°08' W 123°28'0 0.0
2014-Jul-29 14:33N 48°08' W 123°28'2 1.8
2014-Jul-29 13:33N 48°08' W 123°25'8 7.6
2014-Jul-29 12:33N 48°10' W 123°14'1 7.7
2014-Jul-29 12:23N 48°11' W 123°12'6 7.0
2014-Jul-29 11:33N 48°13' W 123°04'7 7.3
2014-Jul-29 10:33N 48°12' W 122°53'9 6.8
2014-Jul-29 09:10N 48°08' W 122°40'5 8.3
2014-Jul-29 08:33N 48°03' W 122°38'6 9.3
2014-Jul-29 07:55N 47°58' W 122°34'3 9.3
2014-Jul-29 07:33N 47°56' W 122°29'2 9.3
2014-Jul-29 07:21N 47°54' W 122°29'7 8.7
2014-Jul-29 06:33N 47°47' W 122°26'0 7.4
2014-Jul-29 06:31N 47°47' W 122°26'5 8.1
2014-Jul-29 05:56N 47°42' W 122°26'3 8.4
2014-Jul-29 05:33N 47°39' W 122°27'6 6.0
2014-Jul-29 04:33N 47°34' W 122°22'0 0.1
2014-Jul-29 04:30N 47°34' W 122°22'  
2014-Jul-26 06:30N 47°36' W 122°22'1 2.2
2014-Jul-26 06:09N 47°36' W 122°23'2 6.1
2014-Jul-26 05:49N 47°37' W 122°25'2 6.7
2014-Jul-26 05:33N 47°38' W 122°27'6 6.3
2014-Jul-26 04:34N 47°45' W 122°27'0 8.8
2014-Jul-26 04:33N 47°45' W 122°27'7 6.8
2014-Jul-26 03:33N 47°51' W 122°29'0 4.6
2014-Jul-26 03:33N 47°51' W 122°29'6 6.0
2014-Jul-26 02:33N 47°56' W 122°33'12 5.4
2014-Jul-26 00:20N 48°06' W 122°44'3 0.3
2014-Jul-25 11:13N 48°05' W 122°39'5 7.9
2014-Jul-25 10:33N 48°00' W 122°36'7 6.9
2014-Jul-25 09:33N 47°56' W 122°29'010.8
2014-Jul-25 09:33N 47°56' W 122°29'8 7.7
2014-Jul-25 08:33N 47°48' W 122°26'011.6
2014-Jul-25 08:33N 47°48' W 122°26'8 7.6
2014-Jul-25 07:33N 47°41' W 122°27'0 0.0
2014-Jul-25 07:33N 47°41' W 122°27'6 7.2
2014-Jul-25 06:43N 47°36' W 122°22'1 6.7
2014-Jul-25 06:33N 47°35' W 122°22'  
2014-Jul-22 21:50N 47°34' W 122°22'0 0.7
2014-Jul-22 21:33N 47°35' W 122°22'0 3.8
2014-Jul-22 21:30N 47°35' W 122°22'2 1.7
2014-Jul-22 20:33N 47°36' W 122°23'0 3.2
2014-Jul-22 20:30N 47°36' W 122°23'6 6.2
2014-Jul-22 19:33N 47°41' W 122°28'0 7.1
2014-Jul-22 19:30N 47°41' W 122°28'7 7.8
2014-Jul-22 18:34N 47°49' W 122°28'1 8.0
2014-Jul-22 18:30N 47°49' W 122°28'7 7.3
2014-Jul-22 17:34N 47°56' W 122°31'7 7.1
2014-Jul-22 16:34N 48°01' W 122°39'7 6.8
2014-Jul-22 15:33N 48°07' W 122°41'6 5.7
2014-Jul-22 14:33N 48°11' W 122°48'8 5.7
2014-Jul-22 13:12N 48°19' W 122°47'5 8.4
2014-Jul-22 12:33N 48°24' W 122°45'10 9.7
2014-Jul-22 11:33N 48°33' W 122°45'8 8.4
2014-Jul-22 10:34N 48°42' W 122°44'7 7.5
2014-Jul-22 09:34N 48°47' W 122°52'8 7.7
2014-Jul-22 08:34N 48°51' W 123°02'8 7.5
2014-Jul-22 07:34N 48°55' W 123°12'7 7.0
2014-Jul-22 06:33N 49°00' W 123°19'7 7.0
2014-Jul-22 05:34N 49°06' W 123°27'7 6.8
2014-Jul-22 04:33N 49°12' W 123°29'7 6.9
2014-Jul-22 03:34N 49°19' W 123°28'7 6.6
2014-Jul-22 02:33N 49°26' W 123°27'6 5.6
2014-Jul-22 01:33N 49°31' W 123°29'0 0.0
2014-Jul-21 23:33N 49°31' W 123°29'0 0.0
2014-Jul-21 22:32N 49°31' W 123°29'0 0.0
2014-Jul-21 21:34N 49°31' W 123°29'0 0.0
2014-Jul-21 20:33N 49°31' W 123°29'0 0.0
2014-Jul-21 20:18N 49°31' W 123°29'0 0.0
2014-Jul-21 18:29N 49°31' W 123°29'0 0.0
2014-Jul-21 17:13N 49°31' W 123°29'0 0.0
2014-Jul-21 14:33N 49°31' W 123°29'3 3.4
2014-Jul-21 13:34N 49°28' W 123°28'  

Dump ship's entire track history